createdAt,value
2019-02-25T00:04:35.745Z,21.33
2019-02-25T00:09:39.329Z,14.87
2019-02-25T00:14:43.392Z,17.73
2019-02-25T00:19:47.033Z,15.53
2019-02-25T00:24:50.697Z,13.20
2019-02-25T00:29:54.276Z,16.67
2019-02-25T00:34:58.175Z,12.53
2019-02-25T00:40:01.757Z,12.47
2019-02-25T00:45:08.691Z,13.60
2019-02-25T00:50:19.893Z,13.20
2019-02-25T00:55:23.826Z,14.53
2019-02-25T01:00:27.704Z,15.43
2019-02-25T01:05:31.427Z,16.93
2019-02-25T01:10:35.076Z,11.93
2019-02-25T01:15:38.672Z,12.57
2019-02-25T01:20:42.621Z,12.70
2019-02-25T01:25:46.213Z,13.73
2019-02-25T01:30:49.786Z,13.87
2019-02-25T01:35:54.033Z,14.27
2019-02-25T01:40:57.617Z,12.43
2019-02-25T01:46:01.264Z,13.00
2019-02-25T01:51:04.954Z,11.63
2019-02-25T01:56:08.673Z,11.07
2019-02-25T02:01:12.249Z,12.97
2019-02-25T02:06:15.833Z,13.80
2019-02-25T02:11:19.430Z,13.07
2019-02-25T02:16:23.086Z,15.50
2019-02-25T02:21:26.673Z,14.47
2019-02-25T02:26:30.253Z,14.00
2019-02-25T02:31:33.918Z,16.60
2019-02-25T02:36:37.881Z,16.20
2019-02-25T02:42:01.688Z,14.27
2019-02-25T02:47:14.103Z,14.53
2019-02-25T02:52:17.681Z,14.63
2019-02-25T02:57:21.273Z,14.63
2019-02-25T03:02:24.858Z,14.80
2019-02-25T03:07:28.445Z,14.63
2019-02-25T03:12:32.025Z,13.33
2019-02-25T03:17:35.618Z,15.20
2019-02-25T03:22:39.341Z,15.70
2019-02-25T03:27:42.997Z,16.80
2019-02-25T03:32:47.004Z,16.20
2019-02-25T03:37:50.741Z,18.27
2019-02-25T03:42:54.332Z,15.47
2019-02-25T03:47:57.908Z,16.93
2019-02-25T03:53:01.789Z,17.07
2019-02-25T03:58:05.506Z,16.17
2019-02-25T04:03:09.476Z,19.13
2019-02-25T04:08:13.053Z,15.87
2019-02-25T04:13:16.650Z,15.17
2019-02-25T04:18:20.650Z,16.87
2019-02-25T04:23:24.303Z,17.93
2019-02-25T04:28:27.891Z,21.53
2019-02-25T04:33:31.481Z,18.43
2019-02-25T04:38:35.411Z,17.37
2019-02-25T04:43:38.997Z,17.37
2019-02-25T04:48:42.578Z,17.27
2019-02-25T04:53:46.229Z,17.33
2019-02-25T04:58:49.823Z,17.30
2019-02-25T05:03:53.765Z,19.83
2019-02-25T05:08:57.760Z,16.63
2019-02-25T05:14:01.345Z,15.83
2019-02-25T05:19:04.995Z,18.93
2019-02-25T05:24:08.572Z,20.43
2019-02-25T05:29:12.230Z,15.80
2019-02-25T05:34:15.833Z,16.10
2019-02-25T05:39:19.430Z,16.70
2019-02-25T05:44:23.069Z,18.50
2019-02-25T05:49:27.011Z,22.40
2019-02-25T05:54:30.911Z,19.92
2019-02-25T05:59:34.825Z,26.40
2019-02-25T06:04:38.502Z,19.73
2019-02-25T06:09:42.144Z,18.13
2019-02-25T06:14:46.208Z,19.33
2019-02-25T06:19:49.792Z,22.27
2019-02-25T06:24:53.388Z,20.00
2019-02-25T06:29:57.042Z,22.63
2019-02-25T06:35:00.985Z,21.17
2019-02-25T06:40:06.413Z,17.57
2019-02-25T06:45:12.903Z,23.37
2019-02-25T06:50:16.572Z,25.73
2019-02-25T06:55:20.221Z,18.30
2019-02-25T07:00:24.208Z,20.03
2019-02-25T07:05:32.016Z,19.30
2019-02-25T07:10:40.375Z,22.07
2019-02-25T07:15:51.678Z,16.53
2019-02-25T07:20:56.910Z,15.60
2019-02-25T07:26:04.569Z,24.03
2019-02-25T07:31:19.192Z,16.50
2019-02-25T07:36:36.763Z,17.30
2019-02-25T07:41:44.637Z,16.97
2019-02-25T07:47:06.052Z,17.13
2019-02-25T07:52:11.408Z,18.87
2019-02-25T07:57:34.945Z,15.83
2019-02-25T08:02:43.118Z,16.30
2019-02-25T08:08:03.349Z,16.10
2019-02-25T08:13:23.923Z,16.23
2019-02-25T08:18:32.252Z,17.17
2019-02-25T08:23:37.516Z,17.30
2019-02-25T08:28:43.038Z,17.33
2019-02-25T08:34:06.070Z,15.80
2019-02-25T08:39:20.645Z,14.63
2019-02-25T08:44:38.150Z,15.17
2019-02-25T08:49:43.885Z,16.23
2019-02-25T08:54:47.886Z,15.43
2019-02-25T08:59:51.925Z,16.17
2019-02-25T09:04:55.585Z,17.03
2019-02-25T09:09:59.233Z,19.70
2019-02-25T09:15:02.933Z,19.23
2019-02-25T09:20:06.666Z,18.90
2019-02-25T09:25:13.245Z,19.50
2019-02-25T09:30:18.954Z,16.60
2019-02-25T09:35:22.534Z,20.73
2019-02-25T09:40:26.122Z,20.60
2019-02-25T09:45:29.771Z,22.87
2019-02-25T09:50:33.439Z,38.77
2019-02-25T09:55:37.163Z,34.77
2019-02-25T10:00:41.145Z,20.40
2019-02-25T10:05:46.254Z,18.20
2019-02-25T10:10:50.436Z,20.07
2019-02-25T10:15:54.025Z,16.60
2019-02-25T10:20:57.757Z,15.97
2019-02-25T10:26:01.419Z,18.87
2019-02-25T10:31:05.440Z,17.03
2019-02-25T10:36:09.160Z,18.90
2019-02-25T10:41:13.066Z,15.33
2019-02-25T10:46:17.704Z,15.47
2019-02-25T10:51:21.745Z,16.57
2019-02-25T10:56:34.305Z,15.93
2019-02-25T11:01:39.243Z,14.20
2019-02-25T11:06:43.366Z,13.23
2019-02-25T11:11:48.563Z,15.87
2019-02-25T11:16:53.029Z,16.03
2019-02-25T11:21:56.607Z,14.07
2019-02-25T11:27:01.066Z,14.23
2019-02-25T11:32:06.297Z,16.67
2019-02-25T11:37:09.966Z,13.90
2019-02-25T11:42:16.428Z,13.57
2019-02-25T11:47:18.859Z,16.10
2019-02-25T11:52:22.604Z,15.70
2019-02-25T11:57:26.790Z,15.10
2019-02-25T12:02:30.361Z,14.77
2019-02-25T12:07:34.035Z,16.10
2019-02-25T12:12:37.761Z,19.53
2019-02-25T12:17:41.412Z,16.27
2019-02-25T12:22:45.069Z,15.20
2019-02-25T12:27:48.996Z,18.17
2019-02-25T12:32:52.719Z,17.13
2019-02-25T12:37:56.371Z,15.83
2019-02-25T12:42:59.907Z,18.20
2019-02-25T12:48:03.626Z,13.80
2019-02-25T12:53:07.632Z,13.83
2019-02-25T12:58:11.245Z,14.77
2019-02-25T13:03:15.294Z,15.67
2019-02-25T13:08:18.872Z,17.03
2019-02-25T13:13:22.836Z,18.63
2019-02-25T13:18:26.740Z,17.47
2019-02-25T13:23:30.326Z,16.40
2019-02-25T13:28:33.955Z,14.27
2019-02-25T13:33:37.554Z,17.30
2019-02-25T13:38:41.138Z,18.30
2019-02-25T13:43:45.161Z,16.40
2019-02-25T13:48:48.748Z,20.03
2019-02-25T13:53:52.409Z,14.77
2019-02-25T13:58:55.993Z,15.83
2019-02-25T14:03:59.658Z,20.30
2019-02-25T14:09:04.945Z,17.67
2019-02-25T14:14:08.604Z,16.57
2019-02-25T14:19:12.929Z,18.23
2019-02-25T14:24:18.422Z,20.70
2019-02-25T14:29:26.235Z,20.37
2019-02-25T14:34:27.808Z,18.63
2019-02-25T14:39:32.959Z,19.27
2019-02-25T14:44:38.088Z,26.00
2019-02-25T14:49:42.920Z,22.70
2019-02-25T14:54:46.634Z,22.30
2019-02-25T14:59:50.283Z,20.13
2019-02-25T15:04:54.511Z,20.80
2019-02-25T15:09:59.969Z,17.27
2019-02-25T15:15:04.841Z,19.53
2019-02-25T15:20:12.646Z,20.53
2019-02-25T15:25:18.126Z,22.70
2019-02-25T15:30:30.824Z,19.33
2019-02-25T15:35:36.971Z,19.87
2019-02-25T15:40:40.379Z,18.00
2019-02-25T15:45:45.260Z,19.77
2019-02-25T15:50:52.970Z,19.47
2019-02-25T15:56:01.069Z,19.43
2019-02-25T16:01:02.949Z,23.83
2019-02-25T16:06:08.362Z,22.10
2019-02-25T16:11:14.040Z,21.13
2019-02-25T16:16:19.999Z,30.50
2019-02-25T16:21:24.467Z,30.77
2019-02-25T16:26:29.220Z,28.90
2019-02-25T16:31:33.719Z,26.83
2019-02-25T16:36:38.123Z,26.73
2019-02-25T16:41:43.480Z,21.70
2019-02-25T16:46:48.957Z,23.37
2019-02-25T16:51:53.185Z,24.47
2019-02-25T16:56:58.048Z,36.87
2019-02-25T17:02:02.307Z,36.27
2019-02-25T17:07:06.929Z,32.20
2019-02-25T17:12:10.584Z,26.53
2019-02-25T17:17:14.242Z,24.50
2019-02-25T17:22:17.894Z,21.97
2019-02-25T17:27:21.481Z,26.40
2019-02-25T17:32:25.531Z,36.07
2019-02-25T17:37:31.371Z,32.57
2019-02-25T17:42:34.807Z,24.27
2019-02-25T17:47:39.671Z,27.63
2019-02-25T17:52:45.162Z,23.47
2019-02-25T17:57:50.327Z,21.70
2019-02-25T18:02:56.680Z,22.33
2019-02-25T18:08:00.553Z,22.47
2019-02-25T18:13:06.705Z,19.50
2019-02-25T18:18:12.536Z,32.47
2019-02-25T18:23:15.845Z,32.63
2019-02-25T18:28:20.143Z,31.67
2019-02-25T18:33:26.888Z,32.60
2019-02-25T18:38:31.682Z,27.03
2019-02-25T18:43:35.468Z,21.17
2019-02-25T18:48:40.710Z,22.00
2019-02-25T18:53:44.826Z,25.00
2019-02-25T18:58:48.644Z,24.03
2019-02-25T19:03:54.311Z,26.40
2019-02-25T19:08:58.304Z,22.20
2019-02-25T19:14:03.696Z,32.63
2019-02-25T19:19:07.963Z,23.13
2019-02-25T19:24:14.304Z,27.20
2019-02-25T19:29:19.609Z,38.23
2019-02-25T19:34:23.596Z,34.27
2019-02-25T19:39:27.264Z,33.97
2019-02-25T19:44:32.105Z,36.20
2019-02-25T19:49:37.131Z,36.43
2019-02-25T19:54:43.352Z,30.37
2019-02-25T19:59:50.265Z,22.00
2019-02-25T20:04:52.482Z,21.60
2019-02-25T20:09:57.946Z,21.73
2019-02-25T20:15:01.850Z,17.63
2019-02-25T20:20:10.981Z,16.80
2019-02-25T20:25:16.825Z,22.87
2019-02-25T20:30:21.950Z,23.57
2019-02-25T20:35:27.263Z,19.57
2019-02-25T20:40:32.998Z,20.47
2019-02-25T20:45:37.768Z,25.57
2019-02-25T20:50:41.438Z,19.67
2019-02-25T20:55:45.193Z,14.03
2019-02-25T21:00:50.917Z,22.40
2019-02-25T21:05:54.750Z,20.40
2019-02-25T21:10:59.895Z,27.30
2019-02-25T21:16:04.878Z,19.77
2019-02-25T21:21:11.273Z,18.27
2019-02-25T21:26:14.228Z,15.60
2019-02-25T21:31:19.556Z,10.60
2019-02-25T21:36:23.113Z,12.03
2019-02-25T21:41:26.770Z,11.27
2019-02-25T21:46:31.596Z,13.70
2019-02-25T21:51:36.887Z,13.23
2019-02-25T21:56:41.293Z,16.17
2019-02-25T22:01:44.949Z,14.63
2019-02-25T22:06:51.017Z,12.47
2019-02-25T22:11:54.582Z,9.77
2019-02-25T22:16:58.922Z,9.87
2019-02-25T22:22:04.954Z,9.23
2019-02-25T22:27:08.916Z,12.07
2019-02-25T22:32:12.759Z,9.83
2019-02-25T22:37:17.486Z,10.57
2019-02-25T22:42:21.569Z,10.50
2019-02-25T22:47:25.507Z,10.83
2019-02-25T22:52:31.408Z,11.60
2019-02-25T22:57:35.069Z,11.13
2019-02-25T23:02:41.192Z,9.50
2019-02-25T23:07:45.950Z,12.47
2019-02-25T23:12:49.969Z,9.07
2019-02-25T23:17:53.545Z,9.13
2019-02-25T23:22:59.489Z,10.37
2019-02-25T23:28:02.915Z,7.57
2019-02-25T23:33:08.030Z,10.43
2019-02-25T23:38:11.756Z,8.90
2019-02-25T23:43:16.736Z,16.10
2019-02-25T23:48:20.570Z,10.13
2019-02-25T23:53:26.094Z,9.87
2019-02-25T23:58:29.369Z,10.27
